Terminal Aerodrome Forecast
Issued by NWS

Home | Current Version | Previous Version | Text Only | Print | Product List | Glossary On
Versions: 1 2 3 4 5 6 7 8 9 10 11 12 13
132
FTUS46 KSTO 050536
TAFRBL
TAF
KRBL 050536Z 0506/0606 VRB04KT 5SM BR BKN060
     FM051100 32007KT P6SM BKN050
     FM051800 35011G21KT P6SM FEW050 SCT250
     FM060200 34006KT P6SM BKN250=

USA.gov is the U.S. government's official web portal to all federal, state and local government web resources and services.